Time;durP1;ratioP1;P1;durP2;ratioP2;P2;SDS_P1;SDS_P2;PMS_P1;PMS_P2;Temp;Humidity;BMP_temperature;BMP_pressure;BME280_temperature;BME280_humidity;BME280_pressure;Samples;Min_cycle;Max_cycle;Signal;HPM_P1;HPM_P2
2023/06/08 00:01:53;;;;;;;11.73;8.43;;;;;;;15.90;68.73;96127.88;5027715;28;20049;-72
2023/06/08 00:04:20;;;;;;;13.68;8.40;;;;;;;15.86;68.82;96127.78;5027726;28;20390;-72
2023/06/08 00:06:49;;;;;;;11.43;8.13;;;;;;;15.83;68.69;96128.50;5028981;28;20088;-72
2023/06/08 00:09:16;;;;;;;12.23;8.57;;;;;;;15.80;69.19;96129.22;5026377;28;20056;-72
2023/06/08 00:11:43;;;;;;;12.48;8.13;;;;;;;15.79;69.03;96124.88;5024919;28;20045;-72
2023/06/08 00:14:10;;;;;;;11.13;8.63;;;;;;;15.77;69.15;96129.94;5026491;28;20065;-72
2023/06/08 00:16:38;;;;;;;10.23;8.25;;;;;;;15.73;69.41;96123.56;5025037;28;20516;-72
2023/06/08 00:19:04;;;;;;;10.23;8.23;;;;;;;15.70;69.39;96121.53;5026929;28;20168;-72
2023/06/08 00:21:33;;;;;;;9.43;7.80;;;;;;;15.67;68.70;96114.03;5028629;28;20042;-72
2023/06/08 00:23:59;;;;;;;10.77;8.05;;;;;;;15.63;68.68;96121.38;5026338;28;20619;-72
2023/06/08 00:26:26;;;;;;;8.98;7.45;;;;;;;15.61;69.02;96116.22;5025481;28;20511;-72
2023/06/08 00:28:53;;;;;;;11.63;9.05;;;;;;;15.61;69.46;96126.41;5027661;28;20053;-72
2023/06/08 00:31:21;;;;;;;9.77;7.90;;;;;;;15.59;69.53;96123.19;5027688;28;20041;-72
2023/06/08 00:33:47;;;;;;;9.90;8.00;;;;;;;15.56;70.08;96112.94;5027939;28;20050;-72
2023/06/08 00:36:14;;;;;;;12.50;9.10;;;;;;;15.52;69.97;96106.56;5027581;28;20045;-72
2023/06/08 00:38:41;;;;;;;11.88;8.07;;;;;;;15.48;69.94;96106.47;5028253;28;21595;-72
2023/06/08 00:41:07;;;;;;;11.00;8.45;;;;;;;15.46;69.99;96108.00;5027848;28;20049;-73
2023/06/08 00:43:34;;;;;;;8.88;7.57;;;;;;;15.40;69.74;96111.00;5027780;28;20524;-72
2023/06/08 00:46:02;;;;;;;12.35;8.82;;;;;;;15.38;69.59;96112.50;5028037;28;20037;-72
2023/06/08 00:48:31;;;;;;;11.45;8.38;;;;;;;15.32;70.01;96114.72;5029654;28;20076;-74
2023/06/08 00:51:00;;;;;;;11.32;9.23;;;;;;;15.33;70.42;96105.34;5029969;28;20037;-74
2023/06/08 00:53:28;;;;;;;12.90;8.60;;;;;;;15.29;70.12;96112.66;5027759;28;20126;-75
2023/06/08 00:55:55;;;;;;;11.27;8.23;;;;;;;15.26;70.61;96116.13;5028322;28;20049;-74
2023/06/08 00:58:22;;;;;;;13.75;8.68;;;;;;;15.25;70.82;96120.03;5029013;28;20088;-73
2023/06/08 01:00:49;;;;;;;11.32;8.50;;;;;;;15.26;71.63;96118.88;5029333;28;20056;-72
2023/06/08 01:03:15;;;;;;;11.40;8.93;;;;;;;15.25;71.27;96109.06;5028800;28;20505;-72
2023/06/08 01:05:44;;;;;;;12.05;8.95;;;;;;;15.24;70.75;96107.44;5031399;28;20401;-73
2023/06/08 01:08:20;;;;;;;11.93;9.15;;;;;;;15.22;71.02;96109.75;5030230;28;20037;-73
2023/06/08 01:10:57;;;;;;;11.65;8.50;;;;;;;15.20;70.45;96114.03;5026133;28;20404;-73
2023/06/08 01:13:30;;;;;;;13.75;8.65;;;;;;;15.16;70.72;96105.69;5026308;28;20497;-72
2023/06/08 01:16:01;;;;;;;12.60;8.23;;;;;;;15.13;70.80;96101.69;5027665;28;20045;-72
2023/06/08 01:18:32;;;;;;;10.60;9.00;;;;;;;15.13;70.83;96109.91;5025985;28;20091;-72
2023/06/08 01:21:12;;;;;;;10.63;8.13;;;;;;;15.09;71.04;96100.84;5025722;28;20041;-73
2023/06/08 01:23:56;;;;;;;11.07;8.00;;;;;;;15.06;71.21;96100.72;5026176;28;20652;-73
2023/06/08 01:26:26;;;;;;;11.05;8.27;;;;;;;14.99;71.36;96101.34;5024481;28;20056;-72
2023/06/08 01:28:55;;;;;;;10.00;7.90;;;;;;;14.96;71.70;96096.56;5026772;28;20045;-72
2023/06/08 01:31:22;;;;;;;10.15;8.45;;;;;;;14.95;71.79;96099.66;5007136;28;20052;-72
2023/06/08 01:33:49;;;;;;;9.63;8.00;;;;;;;14.94;72.61;96087.09;5025816;28;20050;-72
2023/06/08 01:36:22;;;;;;;12.10;9.45;;;;;;;14.92;72.32;96095.66;5025758;28;20056;-72
2023/06/08 01:38:56;;;;;;;11.07;8.85;;;;;;;14.90;72.74;96091.69;5005341;28;20056;-72
2023/06/08 01:41:27;;;;;;;10.80;8.93;;;;;;;14.88;73.03;96095.59;5024238;28;20493;-73
2023/06/08 01:43:56;;;;;;;11.90;8.93;;;;;;;14.86;73.17;96089.66;5023382;28;20064;-72
2023/06/08 01:46:24;;;;;;;12.13;9.35;;;;;;;14.85;73.28;96090.00;5024248;28;20056;-72
2023/06/08 01:48:52;;;;;;;10.25;8.38;;;;;;;14.83;73.57;96087.63;5025731;28;20049;-72
2023/06/08 01:51:20;;;;;;;11.73;9.18;;;;;;;14.80;73.62;96091.06;5029091;28;20049;-72
2023/06/08 01:53:46;;;;;;;11.77;9.95;;;;;;;14.81;73.76;96087.16;5029982;28;20041;-73
2023/06/08 01:56:13;;;;;;;11.63;9.00;;;;;;;14.78;73.62;96087.88;5031229;28;20069;-73
2023/06/08 01:58:41;;;;;;;13.60;9.27;;;;;;;14.71;73.25;96089.63;5031438;28;20055;-72
2023/06/08 02:01:07;;;;;;;12.00;8.18;;;;;;;14.67;73.35;96081.31;5028908;28;20042;-72
2023/06/08 02:03:33;;;;;;;12.48;8.70;;;;;;;14.62;73.17;96081.59;5029591;28;20046;-72
2023/06/08 02:06:00;;;;;;;10.60;8.77;;;;;;;14.57;73.54;96082.63;5031078;28;20050;-72
2023/06/08 02:08:26;;;;;;;11.52;8.95;;;;;;;14.50;73.23;96078.88;5028551;28;20046;-72
2023/06/08 02:10:53;;;;;;;13.63;9.73;;;;;;;14.45;73.76;96077.16;5029407;28;20050;-72
2023/06/08 02:13:19;;;;;;;11.18;8.70;;;;;;;14.39;73.71;96077.75;5029199;28;20088;-72
2023/06/08 02:15:47;;;;;;;12.25;10.13;;;;;;;14.33;73.99;96080.75;5030869;28;20041;-72
2023/06/08 02:18:14;;;;;;;11.75;9.32;;;;;;;14.32;74.19;96083.84;5028092;28;20046;-72
2023/06/08 02:20:41;;;;;;;10.95;8.90;;;;;;;14.32;74.72;96084.66;5029385;28;20058;-72
2023/06/08 02:23:07;;;;;;;14.18;10.20;;;;;;;14.34;75.22;96082.34;5027962;28;20045;-72
2023/06/08 02:25:34;;;;;;;11.57;9.20;;;;;;;14.36;75.05;96084.75;5029310;28;20052;-72
2023/06/08 02:28:00;;;;;;;12.02;9.32;;;;;;;14.36;75.04;96080.06;5029385;28;20052;-72
2023/06/08 02:30:27;;;;;;;13.73;9.05;;;;;;;14.31;75.01;96088.53;5028680;28;20985;-72
2023/06/08 02:32:55;;;;;;;11.02;9.10;;;;;;;14.29;75.10;96090.00;5027972;28;20513;-72
2023/06/08 02:35:22;;;;;;;11.70;8.90;;;;;;;14.27;74.91;96104.06;5028430;28;20056;-72
2023/06/08 02:37:48;;;;;;;11.45;8.38;;;;;;;14.24;74.73;96099.25;5029009;28;20056;-72
2023/06/08 02:40:15;;;;;;;11.68;9.23;;;;;;;14.27;75.08;96097.78;5028846;28;20053;-72
2023/06/08 02:42:41;;;;;;;12.82;9.32;;;;;;;14.26;75.25;96097.00;5028779;28;20060;-73
2023/06/08 02:45:09;;;;;;;14.10;9.70;;;;;;;14.22;75.18;96093.34;5028636;28;20501;-72
2023/06/08 02:47:35;;;;;;;12.85;9.35;;;;;;;14.24;75.28;96098.47;5029081;28;20056;-72
2023/06/08 02:50:03;;;;;;;11.65;9.45;;;;;;;14.24;75.39;96102.00;5027069;28;20541;-74
2023/06/08 02:52:30;;;;;;;10.60;8.95;;;;;;;14.25;76.28;96103.63;5027913;28;20049;-73
2023/06/08 02:54:56;;;;;;;13.32;10.68;;;;;;;14.27;76.26;96103.25;5027688;28;20049;-72
2023/06/08 02:57:23;;;;;;;11.77;9.85;;;;;;;14.28;76.23;96105.66;5027411;28;20041;-72
2023/06/08 02:59:49;;;;;;;13.57;10.10;;;;;;;14.26;76.00;96101.69;5028425;28;20045;-71
2023/06/08 03:02:16;;;;;;;13.63;10.82;;;;;;;14.22;76.25;96107.03;5028757;28;20136;-72
2023/06/08 03:04:45;;;;;;;14.43;10.02;;;;;;;14.20;76.27;96103.88;5027881;28;20054;-72
2023/06/08 03:07:15;;;;;;;12.15;9.68;;;;;;;14.18;76.30;96106.13;5027459;28;20048;-72
2023/06/08 03:09:41;;;;;;;12.75;10.27;;;;;;;14.17;76.53;96099.06;5024868;28;20516;-72
2023/06/08 03:12:10;;;;;;;12.05;9.38;;;;;;;14.18;76.75;96102.59;5028515;28;20050;-73
2023/06/08 03:14:38;;;;;;;14.02;9.90;;;;;;;14.15;77.31;96101.38;5027746;28;20099;-72
2023/06/08 03:17:05;;;;;;;13.00;9.95;;;;;;;14.14;77.16;96099.75;5028687;28;20046;-72
2023/06/08 03:19:32;;;;;;;12.45;10.10;;;;;;;14.13;76.90;96097.38;5029087;28;20045;-72
2023/06/08 03:22:00;;;;;;;11.32;9.40;;;;;;;14.15;77.55;96098.63;5027905;28;20057;-72
2023/06/08 03:24:28;;;;;;;11.48;9.23;;;;;;;14.17;76.99;96099.06;5026718;28;20049;-73
2023/06/08 03:26:55;;;;;;;12.10;8.77;;;;;;;14.17;76.99;96101.81;5029556;28;20049;-72
2023/06/08 03:29:22;;;;;;;13.20;9.57;;;;;;;14.13;76.70;96100.09;5025761;28;20141;-72
2023/06/08 03:31:48;;;;;;;12.85;10.50;;;;;;;14.10;77.24;96099.66;5027845;28;20046;-72
2023/06/08 03:34:17;;;;;;;12.07;9.68;;;;;;;14.10;77.46;96105.16;5027489;28;20049;-72
2023/06/08 03:36:43;;;;;;;11.40;9.57;;;;;;;14.09;77.52;96094.50;5027950;28;20045;-72
2023/06/08 03:39:10;;;;;;;12.55;9.55;;;;;;;14.09;78.30;96100.00;5027766;28;20048;-72
2023/06/08 03:41:38;;;;;;;11.80;9.50;;;;;;;14.10;78.65;96101.63;5027479;28;20436;-72
2023/06/08 03:44:05;;;;;;;13.45;10.32;;;;;;;14.11;79.07;96105.94;5027476;28;20048;-72
2023/06/08 03:46:31;;;;;;;12.13;10.30;;;;;;;14.09;78.92;96097.25;5027271;28;20041;-72
2023/06/08 03:48:58;;;;;;;12.13;9.98;;;;;;;14.11;78.83;96100.47;5026981;28;20045;-72
2023/06/08 03:51:25;;;;;;;13.57;9.88;;;;;;;14.10;78.94;96102.41;5018477;28;20045;-72
2023/06/08 03:53:51;;;;;;;13.70;10.00;;;;;;;14.09;78.94;96102.72;5023962;28;20048;-72
2023/06/08 03:56:18;;;;;;;11.52;10.13;;;;;;;14.04;78.77;96097.50;5025884;28;20065;-72
2023/06/08 03:58:46;;;;;;;14.27;10.50;;;;;;;14.03;78.31;96104.13;5026093;28;20056;-72
2023/06/08 04:01:13;;;;;;;11.73;10.05;;;;;;;13.98;78.38;96112.56;5027783;28;20056;-72
2023/06/08 04:03:40;;;;;;;11.98;10.23;;;;;;;13.98;78.62;96115.31;5027571;28;20042;-72
2023/06/08 04:06:08;;;;;;;14.25;10.75;;;;;;;13.99;79.15;96108.69;5026968;28;20053;-73
2023/06/08 04:08:35;;;;;;;15.10;10.82;;;;;;;14.01;79.58;96112.69;5027963;28;20052;-72
2023/06/08 04:11:01;;;;;;;13.85;10.10;;;;;;;14.08;79.98;96112.09;5027677;28;20049;-72
2023/06/08 04:13:28;;;;;;;16.00;11.30;;;;;;;14.14;80.16;96113.44;5026220;28;20045;-72
2023/06/08 04:15:56;;;;;;;13.68;11.23;;;;;;;14.19;81.04;96113.19;5026906;28;20058;-72
2023/06/08 04:18:22;;;;;;;16.17;11.57;;;;;;;14.25;81.29;96120.06;5021579;28;20042;-72
2023/06/08 04:20:50;;;;;;;15.85;11.05;;;;;;;14.31;81.14;96115.13;5025097;28;20057;-72
2023/06/08 04:23:16;;;;;;;13.63;11.02;;;;;;;14.35;81.06;96116.00;5028147;28;20132;-72
2023/06/08 04:25:43;;;;;;;13.93;11.57;;;;;;;14.32;80.75;96120.25;5026565;28;20045;-72
2023/06/08 04:28:09;;;;;;;18.15;12.95;;;;;;;14.25;80.92;96117.31;5027804;28;20045;-73
2023/06/08 04:30:36;;;;;;;15.90;13.35;;;;;;;14.16;82.02;96113.91;5027584;28;20048;-72
2023/06/08 04:33:03;;;;;;;17.70;13.80;;;;;;;14.15;82.55;96117.81;5027730;28;20063;-73
2023/06/08 04:35:31;;;;;;;16.67;12.25;;;;;;;14.24;82.62;96115.69;5027267;28;20049;-72
2023/06/08 04:37:57;;;;;;;14.88;11.65;;;;;;;14.33;82.59;96116.34;5027049;28;20831;-72
2023/06/08 04:40:25;;;;;;;15.20;12.60;;;;;;;14.39;82.92;96121.59;5029848;28;20041;-72
2023/06/08 04:42:51;;;;;;;14.52;11.73;;;;;;;14.46;82.83;96111.66;5027216;28;20459;-73
2023/06/08 04:45:18;;;;;;;14.35;11.23;;;;;;;14.53;82.60;96113.81;5026918;28;20045;-72
2023/06/08 04:47:45;;;;;;;13.73;11.52;;;;;;;14.58;82.22;96124.53;5026283;28;20087;-72
2023/06/08 04:50:14;;;;;;;17.75;13.30;;;;;;;14.62;82.04;96119.94;5025877;28;20056;-72
2023/06/08 04:52:41;;;;;;;14.70;12.65;;;;;;;14.69;81.58;96114.66;5027073;28;20183;-72
2023/06/08 04:55:09;;;;;;;14.18;11.05;;;;;;;14.77;81.19;96113.72;5025322;28;20072;-73
2023/06/08 04:57:36;;;;;;;14.02;12.00;;;;;;;14.82;81.45;96118.91;5026218;28;20049;-72
2023/06/08 05:00:04;;;;;;;14.52;11.02;;;;;;;14.91;81.97;96115.22;5027285;28;21579;-73
2023/06/08 05:02:31;;;;;;;17.45;12.85;;;;;;;14.96;83.33;96123.19;5026667;28;20455;-73
2023/06/08 05:04:58;;;;;;;17.70;14.00;;;;;;;14.91;85.27;96131.66;5026937;28;20053;-72
2023/06/08 05:07:26;;;;;;;15.10;12.52;;;;;;;15.14;84.89;96135.44;5025539;28;20131;-73
2023/06/08 05:09:52;;;;;;;14.82;12.07;;;;;;;15.27;85.25;96133.38;5024710;28;20046;-73
2023/06/08 05:12:19;;;;;;;14.45;11.75;;;;;;;15.34;84.96;96128.88;5023069;28;20044;-73
2023/06/08 05:14:45;;;;;;;13.63;11.45;;;;;;;15.47;84.71;96126.06;5006799;28;20113;-73
2023/06/08 05:17:12;;;;;;;14.60;12.02;;;;;;;15.56;84.80;96126.66;5006205;28;20080;-73
2023/06/08 05:19:38;;;;;;;13.90;11.65;;;;;;;15.69;85.11;96133.66;5006647;28;20056;-73
2023/06/08 05:22:05;;;;;;;12.70;10.48;;;;;;;15.80;85.48;96134.72;5009537;28;20050;-74
2023/06/08 05:24:33;;;;;;;15.35;11.68;;;;;;;15.87;85.28;96129.41;5022018;28;20046;-74
2023/06/08 05:26:59;;;;;;;14.18;11.52;;;;;;;15.95;85.07;96124.84;5020223;28;20056;-73
2023/06/08 05:29:26;;;;;;;13.65;11.20;;;;;;;16.08;84.74;96133.78;5035383;28;20054;-73
2023/06/08 05:31:52;;;;;;;12.50;10.85;;;;;;;16.15;84.78;96139.44;5029872;28;20050;-73
2023/06/08 05:34:19;;;;;;;15.15;12.77;;;;;;;16.17;84.45;96140.66;5029611;28;20046;-73
2023/06/08 05:36:45;;;;;;;15.88;13.25;;;;;;;16.18;84.50;96141.44;5030208;28;20073;-73
2023/06/08 05:39:12;;;;;;;18.02;13.05;;;;;;;16.21;84.01;96143.47;5029582;28;20103;-73
2023/06/08 05:41:40;;;;;;;15.73;13.25;;;;;;;16.16;84.14;96149.25;5030012;28;20049;-73
2023/06/08 05:44:06;;;;;;;18.05;14.27;;;;;;;16.10;83.70;96143.25;5029201;28;20057;-73
2023/06/08 05:46:33;;;;;;;15.93;12.95;;;;;;;16.37;82.90;96135.97;5030092;28;20049;-74
2023/06/08 05:48:59;;;;;;;16.85;13.38;;;;;;;16.50;82.76;96141.34;5029659;28;20052;-73
2023/06/08 05:51:26;;;;;;;16.48;12.98;;;;;;;16.46;83.16;96134.97;5029249;28;20049;-73
2023/06/08 05:53:52;;;;;;;17.80;13.77;;;;;;;16.53;83.08;96132.38;5029311;28;20045;-73
2023/06/08 05:56:19;;;;;;;14.45;11.40;;;;;;;16.64;82.56;96127.88;5028810;28;20595;-73
2023/06/08 05:58:46;;;;;;;14.15;11.77;;;;;;;16.81;82.44;96127.47;5029674;28;20041;-73
2023/06/08 06:01:13;;;;;;;15.40;13.25;;;;;;;16.71;81.36;96128.06;5029175;28;20049;-73
2023/06/08 06:03:41;;;;;;;15.57;12.60;;;;;;;16.72;82.46;96124.16;5029064;28;20053;-73
2023/06/08 06:06:08;;;;;;;17.10;12.10;;;;;;;16.86;81.52;96129.09;5028753;28;20413;-73
2023/06/08 06:08:34;;;;;;;13.82;12.02;;;;;;;17.03;81.07;96127.88;5009822;28;20052;-73
2023/06/08 06:11:01;;;;;;;15.77;11.85;;;;;;;17.02;81.22;96129.84;5019919;28;20045;-73
2023/06/08 06:13:27;;;;;;;15.07;12.23;;;;;;;17.05;81.11;96131.03;5029018;28;20054;-73
2023/06/08 06:15:55;;;;;;;16.20;12.60;;;;;;;17.07;80.64;96128.72;5029872;28;20057;-73
2023/06/08 06:18:22;;;;;;;14.93;11.38;;;;;;;17.16;80.35;96132.03;5028737;28;20410;-73
2023/06/08 06:20:48;;;;;;;14.75;12.15;;;;;;;17.16;79.93;96124.56;5024076;28;20053;-73
2023/06/08 06:23:14;;;;;;;12.73;10.38;;;;;;;17.24;79.86;96125.50;5026225;28;20052;-73
2023/06/08 06:25:41;;;;;;;12.70;11.15;;;;;;;17.26;79.59;96125.91;5029261;28;20053;-73
2023/06/08 06:28:07;;;;;;;12.10;9.40;;;;;;;17.53;79.60;96125.97;5028281;28;20060;-73
2023/06/08 06:30:34;;;;;;;10.98;9.73;;;;;;;17.68;77.93;96123.06;5028615;28;20057;-73
2023/06/08 06:33:02;;;;;;;14.25;10.55;;;;;;;17.79;79.15;96130.75;5029264;28;20515;-74
2023/06/08 06:35:28;;;;;;;12.55;9.93;;;;;;;17.77;76.71;96128.38;5028572;28;20045;-73
2023/06/08 06:37:55;;;;;;;12.27;8.95;;;;;;;17.73;76.50;96131.06;5029192;28;20056;-73
2023/06/08 06:40:22;;;;;;;10.02;8.60;;;;;;;17.74;76.46;96135.41;5027333;28;20416;-74
2023/06/08 06:42:48;;;;;;;11.20;8.80;;;;;;;17.83;76.50;96126.88;5028981;28;20050;-74
2023/06/08 06:45:15;;;;;;;10.07;8.98;;;;;;;17.79;75.85;96130.75;5028381;28;20056;-73
2023/06/08 06:47:42;;;;;;;10.30;9.20;;;;;;;17.71;76.04;96127.84;5028760;28;20056;-73
2023/06/08 06:50:10;;;;;;;10.38;8.38;;;;;;;17.81;76.60;96129.22;5027024;28;20054;-74
2023/06/08 06:52:37;;;;;;;11.15;8.95;;;;;;;17.94;75.73;96127.03;5021501;28;20057;-73
2023/06/08 06:55:04;;;;;;;12.32;8.77;;;;;;;18.07;76.06;96136.69;5028172;28;20057;-74
2023/06/08 06:57:32;;;;;;;10.98;9.48;;;;;;;18.15;76.28;96137.56;5028401;28;20076;-73
2023/06/08 06:59:59;;;;;;;13.10;9.60;;;;;;;18.19;76.15;96133.72;5028857;28;20120;-73
2023/06/08 07:02:28;;;;;;;13.18;10.50;;;;;;;17.94;77.03;96127.84;5020216;28;20045;-73
2023/06/08 07:04:55;;;;;;;12.73;9.63;;;;;;;18.08;76.60;96137.50;5030453;28;20046;-73
2023/06/08 07:07:23;;;;;;;11.13;7.82;;;;;;;18.33;76.21;96138.63;5007992;28;20057;-73
2023/06/08 07:09:49;;;;;;;11.55;8.70;;;;;;;18.28;75.09;96138.97;5021264;28;20144;-73
2023/06/08 07:12:16;;;;;;;11.02;8.80;;;;;;;18.45;74.44;96134.84;5019405;28;20136;-73
2023/06/08 07:14:42;;;;;;;10.18;8.35;;;;;;;18.61;73.72;96134.66;5028453;28;20081;-73
2023/06/08 07:17:10;;;;;;;8.55;6.90;;;;;;;18.80;73.78;96137.28;5024829;28;20053;-73
2023/06/08 07:19:36;;;;;;;10.40;8.90;;;;;;;18.78;73.36;96137.63;5031211;28;20136;-73
2023/06/08 07:22:03;;;;;;;10.10;8.27;;;;;;;18.88;71.48;96136.19;5028410;28;20054;-73
2023/06/08 07:24:30;;;;;;;10.38;8.50;;;;;;;18.90;72.34;96144.88;5027970;28;20049;-74
2023/06/08 07:26:57;;;;;;;11.98;8.68;;;;;;;19.03;73.05;96140.69;5025975;28;20053;-74
2023/06/08 07:29:23;;;;;;;13.00;8.73;;;;;;;19.22;72.61;96141.69;5031353;28;20052;-75
2023/06/08 07:31:50;;;;;;;10.77;7.43;;;;;;;19.40;72.96;96139.88;5030538;28;20501;-75
2023/06/08 07:34:16;;;;;;;9.45;8.40;;;;;;;19.24;69.92;96137.34;5028609;28;20054;-75
2023/06/08 07:36:43;;;;;;;10.85;7.82;;;;;;;19.41;70.32;96135.13;5010719;28;20046;-74
2023/06/08 07:39:09;;;;;;;10.23;7.65;;;;;;;19.46;68.67;96132.03;5010450;28;20058;-74
2023/06/08 07:41:37;;;;;;;9.52;6.22;;;;;;;19.68;68.21;96130.25;5021485;28;20056;-75
2023/06/08 07:44:04;;;;;;;11.25;7.75;;;;;;;19.76;68.88;96129.94;5026802;28;20624;-73
2023/06/08 07:46:31;;;;;;;10.48;7.88;;;;;;;19.86;68.38;96133.19;5032627;28;20060;-73
2023/06/08 07:48:58;;;;;;;9.02;7.35;;;;;;;19.84;68.08;96136.34;5037816;28;20511;-73
2023/06/08 07:51:24;;;;;;;8.68;7.05;;;;;;;19.93;66.96;96139.53;5030568;28;20034;-74
2023/06/08 07:53:51;;;;;;;9.00;6.97;;;;;;;19.88;65.03;96131.59;5034668;28;20095;-73
2023/06/08 07:56:18;;;;;;;7.25;6.22;;;;;;;20.07;66.29;96134.13;5028496;28;20236;-74
2023/06/08 07:58:45;;;;;;;7.35;6.32;;;;;;;20.11;64.99;96127.84;5027024;28;20045;-72
2023/06/08 08:01:12;;;;;;;7.55;5.75;;;;;;;20.13;63.07;96133.75;5027073;28;20059;-73
2023/06/08 08:03:38;;;;;;;7.57;5.30;;;;;;;20.34;64.21;96126.38;5027852;28;20045;-73
2023/06/08 08:06:06;;;;;;;5.50;4.80;;;;;;;20.58;64.17;96124.16;5027243;28;20551;-73
2023/06/08 08:08:32;;;;;;;7.40;5.70;;;;;;;20.65;62.60;96128.94;5021234;28;20075;-73
2023/06/08 08:10:59;;;;;;;7.82;5.68;;;;;;;20.78;62.54;96122.66;5033437;28;20053;-73
2023/06/08 08:13:25;;;;;;;7.40;5.72;;;;;;;20.96;61.46;96122.72;5009616;28;20045;-72
2023/06/08 08:15:53;;;;;;;7.40;4.80;;;;;;;21.22;61.63;96118.03;5007913;28;20045;-73
2023/06/08 08:18:20;;;;;;;5.28;4.30;;;;;;;21.09;58.84;96129.47;5007052;28;20057;-73
2023/06/08 08:20:46;;;;;;;6.80;4.40;;;;;;;21.45;59.33;96118.47;5015386;28;20053;-73
2023/06/08 08:23:13;;;;;;;6.65;4.20;;;;;;;21.67;59.15;96112.97;5033253;28;20056;-73
2023/06/08 08:25:40;;;;;;;5.57;3.80;;;;;;;21.89;60.21;96111.75;5031781;28;20077;-72
2023/06/08 08:28:07;;;;;;;4.18;3.65;;;;;;;22.17;57.33;96115.69;5022345;28;20054;-73
2023/06/08 08:30:35;;;;;;;4.25;3.53;;;;;;;22.29;56.62;96106.94;5026721;28;20050;-73
2023/06/08 08:33:03;;;;;;;4.00;3.13;;;;;;;22.47;56.19;96112.47;5032958;28;20098;-74
2023/06/08 08:35:31;;;;;;;5.90;3.72;;;;;;;22.61;54.14;96110.44;5017767;28;20049;-73
2023/06/08 08:37:58;;;;;;;6.35;4.95;;;;;;;22.76;53.95;96118.69;5026036;28;20103;-73
2023/06/08 08:40:24;;;;;;;5.20;3.90;;;;;;;22.87;53.40;96113.91;5016589;28;20421;-73
2023/06/08 08:42:57;;;;;;;3.97;3.47;;;;;;;23.06;53.17;96110.63;5020903;28;20057;-73
2023/06/08 08:45:31;;;;;;;5.82;3.65;;;;;;;23.13;50.39;96110.63;5025970;28;20753;-73
2023/06/08 08:47:58;;;;;;;4.40;3.33;;;;;;;23.11;51.93;96113.00;5018851;28;20678;-73
2023/06/08 08:50:28;;;;;;;4.18;3.47;;;;;;;23.12;51.61;96122.09;5025713;28;20041;-73
2023/06/08 08:52:57;;;;;;;5.72;3.75;;;;;;;23.16;52.00;96120.91;5027052;28;20053;-74
2023/06/08 08:55:27;;;;;;;5.18;4.00;;;;;;;23.19;52.93;96119.31;5025211;28;20128;-73
2023/06/08 08:57:55;;;;;;;4.05;3.30;;;;;;;23.38;51.63;96104.09;5027037;28;20909;-73
2023/06/08 09:00:22;;;;;;;6.60;4.20;;;;;;;23.41;52.24;96115.19;5035413;28;20057;-74
2023/06/08 09:02:50;;;;;;;6.00;3.65;;;;;;;23.51;51.71;96110.75;5038163;28;20045;-74
2023/06/08 09:05:17;;;;;;;7.45;4.22;;;;;;;23.55;50.57;96105.97;5032344;28;20067;-73
2023/06/08 09:07:45;;;;;;;4.57;4.10;;;;;;;23.30;51.04;96113.69;5033079;28;20041;-75
2023/06/08 09:10:17;;;;;;;5.28;3.85;;;;;;;23.01;49.63;96107.50;5032087;28;20076;-73
2023/06/08 09:12:45;;;;;;;4.57;3.50;;;;;;;23.16;50.00;96109.78;5032183;28;20045;-73
2023/06/08 09:15:13;;;;;;;6.05;3.70;;;;;;;23.55;50.48;96097.63;5032157;28;20485;-74
2023/06/08 09:17:40;;;;;;;5.90;3.50;;;;;;;23.71;49.36;96102.69;5031128;28;20073;-73
2023/06/08 09:20:10;;;;;;;4.32;3.33;;;;;;;23.86;48.79;96095.03;5018570;28;20063;-73
2023/06/08 09:22:37;;;;;;;4.90;3.70;;;;;;;23.88;48.56;96096.19;5030243;28;20053;-73
2023/06/08 09:25:06;;;;;;;5.53;3.28;;;;;;;23.93;47.67;96100.50;5026459;28;20107;-73
2023/06/08 09:27:33;;;;;;;5.32;3.50;;;;;;;23.98;47.88;96093.72;5025981;28;20053;-73
2023/06/08 09:30:00;;;;;;;4.05;3.30;;;;;;;24.17;47.75;96093.09;5026258;28;20087;-73
2023/06/08 09:32:36;;;;;;;3.55;3.10;;;;;;;24.25;46.19;96088.28;5025723;28;20463;-73
2023/06/08 09:35:03;;;;;;;5.07;3.60;;;;;;;24.11;47.42;96095.56;5019288;28;20046;-73
2023/06/08 09:37:31;;;;;;;4.90;3.50;;;;;;;24.36;46.74;96088.97;5026676;28;20106;-74
2023/06/08 09:39:59;;;;;;;4.55;3.05;;;;;;;24.59;46.57;96083.56;5006232;28;20049;-73
2023/06/08 09:42:41;;;;;;;3.42;2.97;;;;;;;24.39;45.66;96083.38;5006011;28;20041;-73
2023/06/08 09:45:10;;;;;;;3.67;2.75;;;;;;;24.54;45.12;96081.22;4988434;28;20046;-73
2023/06/08 09:47:37;;;;;;;3.88;2.78;;;;;;;24.67;46.66;96081.47;5006272;28;20058;-73
2023/06/08 09:50:07;;;;;;;5.57;3.13;;;;;;;24.49;44.34;96076.13;5020042;28;20409;-73
2023/06/08 09:52:35;;;;;;;4.95;3.15;;;;;;;24.63;44.66;96075.91;5026108;28;20095;-73
2023/06/08 09:55:03;;;;;;;3.35;3.00;;;;;;;24.83;45.69;96072.50;5025438;28;20053;-74
2023/06/08 09:57:35;;;;;;;4.38;3.40;;;;;;;24.78;46.12;96075.75;5025367;28;20053;-73
2023/06/08 10:00:14;;;;;;;3.47;2.85;;;;;;;24.81;44.73;96074.94;5025511;28;20052;-73
2023/06/08 10:02:46;;;;;;;3.78;2.75;;;;;;;25.11;47.01;96074.94;5025464;28;20481;-73
2023/06/08 10:05:15;;;;;;;4.93;3.10;;;;;;;24.72;43.66;96076.22;5025525;28;20050;-73
2023/06/08 10:07:45;;;;;;;3.85;2.90;;;;;;;25.01;42.72;96078.63;5025390;28;20574;-73
2023/06/08 10:10:18;;;;;;;4.75;2.90;;;;;;;24.56;43.32;96064.88;5024626;28;20524;-73
2023/06/08 10:12:47;;;;;;;7.47;2.95;;;;;;;24.92;44.85;96070.78;5024891;28;20042;-73
2023/06/08 10:15:15;;;;;;;3.65;2.90;;;;;;;24.86;43.97;96066.09;5028920;28;20060;-73
2023/06/08 10:17:43;;;;;;;3.92;2.97;;;;;;;25.08;43.34;96066.63;5025915;28;20757;-73
2023/06/08 10:20:12;;;;;;;6.40;3.00;;;;;;;25.10;42.50;96062.19;5020409;28;20049;-73
2023/06/08 10:22:40;;;;;;;4.43;3.33;;;;;;;25.25;45.47;96071.94;5028423;28;20044;-73
2023/06/08 10:25:09;;;;;;;3.70;3.13;;;;;;;25.47;44.11;96060.44;5021351;28;20536;-76
2023/06/08 10:27:35;;;;;;;4.15;3.30;;;;;;;25.47;44.64;96052.88;5037667;28;20505;-73
2023/06/08 10:30:05;;;;;;;4.93;3.20;;;;;;;25.31;45.05;96049.16;5029009;28;20053;-74
2023/06/08 10:32:33;;;;;;;4.75;3.35;;;;;;;25.05;45.08;96057.06;5005256;28;20136;-74
2023/06/08 10:35:03;;;;;;;8.63;4.03;;;;;;;24.98;45.16;96052.41;5018187;28;20057;-72
2023/06/08 10:37:31;;;;;;;5.18;3.03;;;;;;;25.22;43.37;96044.13;5018076;28;20056;-73
2023/06/08 10:39:59;;;;;;;6.57;3.03;;;;;;;25.16;43.25;96052.19;5014352;28;20060;-73
2023/06/08 10:42:26;;;;;;;6.10;3.58;;;;;;;25.12;43.63;96039.50;5028186;28;20055;-73
2023/06/08 10:44:56;;;;;;;5.93;3.15;;;;;;;25.28;45.19;96036.88;5024134;28;20054;-73
2023/06/08 10:47:26;;;;;;;4.68;2.90;;;;;;;25.18;44.34;96033.03;5024980;28;20072;-73
2023/06/08 10:49:57;;;;;;;7.13;4.03;;;;;;;25.09;44.50;96035.56;5028705;28;20500;-73
2023/06/08 10:52:24;;;;;;;6.55;3.30;;;;;;;24.95;45.38;96032.94;5027925;28;20421;-74
2023/06/08 10:54:55;;;;;;;5.05;3.17;;;;;;;24.56;44.54;96025.91;5027350;28;20060;-74
2023/06/08 10:57:39;;;;;;;3.67;2.80;;;;;;;24.76;45.41;96034.41;5027755;28;20045;-74
2023/06/08 11:00:44;;;;;;;4.60;3.20;;;;;;;24.98;43.92;96029.31;5027786;28;20049;-74
2023/06/08 11:03:17;;;;;;;2.90;2.60;;;;;;;24.91;43.99;96027.44;5028182;28;20053;-74
2023/06/08 11:05:48;;;;;;;5.43;3.60;;;;;;;24.41;45.23;96021.72;5027565;28;20132;-73
2023/06/08 11:08:14;;;;;;;3.97;2.80;;;;;;;24.43;44.44;96022.09;5027802;28;20394;-74
2023/06/08 11:10:42;;;;;;;4.60;3.00;;;;;;;24.46;46.22;96021.28;5028450;28;20456;-72
2023/06/08 11:13:10;;;;;;;5.05;3.17;;;;;;;24.53;45.37;96018.38;5027801;28;20049;-73
2023/06/08 11:15:38;;;;;;;5.18;3.00;;;;;;;24.72;46.63;96014.97;5027425;28;20044;-73
2023/06/08 11:18:07;;;;;;;4.68;2.90;;;;;;;24.75;45.25;96009.78;5027218;28;20460;-73
2023/06/08 11:20:37;;;;;;;4.80;3.30;;;;;;;24.98;44.95;96013.41;5028159;28;20053;-72
2023/06/08 11:23:06;;;;;;;3.95;3.05;;;;;;;25.20;41.91;96013.88;5026437;28;20080;-74
2023/06/08 11:25:33;;;;;;;3.78;2.95;;;;;;;25.39;43.71;96014.41;5027947;28;20045;-74
2023/06/08 11:28:00;;;;;;;3.75;3.22;;;;;;;25.56;44.22;96021.66;5027653;28;20053;-74
2023/06/08 11:30:28;;;;;;;3.95;3.05;;;;;;;25.58;43.49;96015.66;5027485;28;20143;-72